メインページ
METAR-TAF:

METAR-TAF

空港 :

ウラジオストク国際空港

ウラジオストク, ロシア

緯度: 43-07N, 経度: 131-56E, 海抜: 184m

現時点の気象観測

当レポートは47分前の09:00(UTC)に作成
の風 6kt
気温 -10°C
湿度 56%
気圧 1026 hPa
視程10km以上

METAR: UHWW 130900Z 36003MPS 9999 NSC M10/M17 Q1026 R25L/0///70 NOSIG RMK QFE768

時間: 19:47 (09:47 UTC)

予報

当レポートは1時間52分前の07:55(UTC)に作成
予報は13日の 09時(UTC)から 14日の 09時(UTC)まで有効
の風 6kt
視程10km以上
高度3000ftの千切れ雲あり
13日の 09時(UTC)から 14日の 09時(UTC)まで一時的に
視程: 4000m
高度2000ftの雲は散在している, 積乱雲.
弱いにわか雪

TAF: UHWW 130755Z 1309/1409 35003MPS 9999 BKN030 TEMPO 1309/1409 4000 -SHSN SCT020CB

4,000以上の空港の気象観測と天気予報(METAR報とTAF報)

利用可能な観測所は地図上に黄色い丸と赤い丸で示す。

丸の上にカーソルを重ねると観測所名を参照できる。

次にクリックすると気象観測と天気予報を参照できる。

マップの切り替え:黒色「×」印の緑ボタンをクリックして拡大、「-」印の緑ボタンをクリックして縮小、緑色の三角印をクリックして隣りの地図に切り替え


METAR-TAF: